sensor_id;sensor_type;location;lat;lon;timestamp;pressure;altitude;pressure_sealevel;temperature;humidity
47750;BME280;49810;48.160;10.812;2022-12-18T00:01:36;96242.69;;;-5.45;89.81
47750;BME280;49810;48.160;10.812;2022-12-18T00:04:06;96256.84;;;-5.39;90.11
47750;BME280;49810;48.160;10.812;2022-12-18T00:06:35;96262.88;;;-5.29;89.84
47750;BME280;49810;48.160;10.812;2022-12-18T00:09:05;96255.97;;;-5.29;89.65
47750;BME280;49810;48.160;10.812;2022-12-18T00:11:33;96251.56;;;-5.38;89.56
47750;BME280;49810;48.160;10.812;2022-12-18T00:14:02;96260.66;;;-5.34;89.54
47750;BME280;49810;48.160;10.812;2022-12-18T00:16:30;96260.16;;;-5.48;89.44
47750;BME280;49810;48.160;10.812;2022-12-18T00:19:00;96269.31;;;-5.55;89.95
47750;BME280;49810;48.160;10.812;2022-12-18T00:21:29;96263.94;;;-5.63;89.82
47750;BME280;49810;48.160;10.812;2022-12-18T00:23:59;96267.78;;;-5.58;89.88
47750;BME280;49810;48.160;10.812;2022-12-18T00:26:30;96268.84;;;-5.60;89.88
47750;BME280;49810;48.160;10.812;2022-12-18T00:29:03;96278.22;;;-5.59;90.37
47750;BME280;49810;48.160;10.812;2022-12-18T00:31:32;96280.78;;;-5.59;90.21
47750;BME280;49810;48.160;10.812;2022-12-18T00:34:01;96274.00;;;-5.60;90.50
47750;BME280;49810;48.160;10.812;2022-12-18T00:36:33;96279.59;;;-5.55;89.86
47750;BME280;49810;48.160;10.812;2022-12-18T00:39:04;96290.47;;;-5.41;89.87
47750;BME280;49810;48.160;10.812;2022-12-18T00:41:34;96281.00;;;-5.51;89.92
47750;BME280;49810;48.160;10.812;2022-12-18T00:44:19;96286.28;;;-5.53;89.88
47750;BME280;49810;48.160;10.812;2022-12-18T00:46:48;96292.00;;;-5.49;90.27
47750;BME280;49810;48.160;10.812;2022-12-18T00:49:20;96292.59;;;-5.46;89.80
47750;BME280;49810;48.160;10.812;2022-12-18T00:51:48;96282.13;;;-5.44;89.73
47750;BME280;49810;48.160;10.812;2022-12-18T00:54:17;96280.88;;;-5.50;89.73
47750;BME280;49810;48.160;10.812;2022-12-18T00:56:47;96290.00;;;-5.46;89.52
47750;BME280;49810;48.160;10.812;2022-12-18T00:59:17;96298.97;;;-5.40;89.76
47750;BME280;49810;48.160;10.812;2022-12-18T01:01:46;96289.69;;;-5.52;90.00
47750;BME280;49810;48.160;10.812;2022-12-18T01:04:14;96288.94;;;-5.43;89.89
47750;BME280;49810;48.160;10.812;2022-12-18T01:06:44;96295.72;;;-5.42;90.01
47750;BME280;49810;48.160;10.812;2022-12-18T01:09:13;96292.75;;;-5.38;89.62
47750;BME280;49810;48.160;10.812;2022-12-18T01:11:41;96297.13;;;-5.38;89.49
47750;BME280;49810;48.160;10.812;2022-12-18T01:14:11;96298.91;;;-5.50;89.65
47750;BME280;49810;48.160;10.812;2022-12-18T01:16:39;96301.00;;;-5.44;90.12
47750;BME280;49810;48.160;10.812;2022-12-18T01:19:09;96304.31;;;-5.21;89.76
47750;BME280;49810;48.160;10.812;2022-12-18T01:21:37;96316.06;;;-5.28;89.22
47750;BME280;49810;48.160;10.812;2022-12-18T01:24:05;96311.41;;;-5.34;89.85
47750;BME280;49810;48.160;10.812;2022-12-18T01:26:33;96308.56;;;-5.31;89.89
47750;BME280;49810;48.160;10.812;2022-12-18T01:29:02;96313.25;;;-5.36;89.64
47750;BME280;49810;48.160;10.812;2022-12-18T01:31:33;96313.81;;;-5.33;89.82
47750;BME280;49810;48.160;10.812;2022-12-18T01:34:03;96323.28;;;-5.22;89.79
47750;BME280;49810;48.160;10.812;2022-12-18T01:36:36;96328.19;;;-5.19;89.57
47750;BME280;49810;48.160;10.812;2022-12-18T01:39:07;96314.47;;;-5.20;89.15
47750;BME280;49810;48.160;10.812;2022-12-18T01:41:36;96314.41;;;-5.29;89.38
47750;BME280;49810;48.160;10.812;2022-12-18T01:45:00;96317.44;;;-5.24;89.50
47750;BME280;49810;48.160;10.812;2022-12-18T01:47:35;96317.78;;;-5.29;89.99
47750;BME280;49810;48.160;10.812;2022-12-18T01:50:07;96325.97;;;-5.24;89.79
47750;BME280;49810;48.160;10.812;2022-12-18T01:52:37;96318.75;;;-5.30;89.86
47750;BME280;49810;48.160;10.812;2022-12-18T01:55:06;96323.91;;;-5.30;90.10
47750;BME280;49810;48.160;10.812;2022-12-18T01:57:35;96318.72;;;-5.19;89.85
47750;BME280;49810;48.160;10.812;2022-12-18T02:00:07;96314.25;;;-5.17;89.69
47750;BME280;49810;48.160;10.812;2022-12-18T02:02:40;96318.34;;;-5.14;89.72
47750;BME280;49810;48.160;10.812;2022-12-18T02:05:10;96311.78;;;-5.18;90.04
47750;BME280;49810;48.160;10.812;2022-12-18T02:07:46;96315.53;;;-5.11;89.99
47750;BME280;49810;48.160;10.812;2022-12-18T02:10:24;96315.19;;;-5.18;89.57
47750;BME280;49810;48.160;10.812;2022-12-18T02:13:00;96306.97;;;-4.91;89.73
47750;BME280;49810;48.160;10.812;2022-12-18T02:15:36;96311.69;;;-4.96;89.41
47750;BME280;49810;48.160;10.812;2022-12-18T02:18:11;96307.53;;;-4.88;89.06
47750;BME280;49810;48.160;10.812;2022-12-18T02:20:44;96303.88;;;-5.06;89.30
47750;BME280;49810;48.160;10.812;2022-12-18T02:23:27;96306.19;;;-4.92;89.34
47750;BME280;49810;48.160;10.812;2022-12-18T02:26:10;96312.31;;;-5.04;89.54
47750;BME280;49810;48.160;10.812;2022-12-18T02:28:45;96319.09;;;-5.03;89.88
47750;BME280;49810;48.160;10.812;2022-12-18T02:31:20;96312.09;;;-5.01;89.48
47750;BME280;49810;48.160;10.812;2022-12-18T02:33:52;96297.50;;;-4.91;89.80
47750;BME280;49810;48.160;10.812;2022-12-18T02:36:24;96305.03;;;-4.99;89.83
47750;BME280;49810;48.160;10.812;2022-12-18T02:38:56;96315.47;;;-5.00;90.12
47750;BME280;49810;48.160;10.812;2022-12-18T02:41:28;96313.81;;;-5.01;90.01
47750;BME280;49810;48.160;10.812;2022-12-18T02:43:59;96317.09;;;-4.99;89.85
47750;BME280;49810;48.160;10.812;2022-12-18T02:46:32;96321.66;;;-4.92;89.88
47750;BME280;49810;48.160;10.812;2022-12-18T02:49:14;96317.09;;;-4.99;89.98
47750;BME280;49810;48.160;10.812;2022-12-18T02:51:52;96318.47;;;-4.95;90.08
47750;BME280;49810;48.160;10.812;2022-12-18T02:54:37;96294.72;;;-4.99;89.86
47750;BME280;49810;48.160;10.812;2022-12-18T02:57:17;96284.75;;;-5.03;89.88
47750;BME280;49810;48.160;10.812;2022-12-18T02:59:55;96289.88;;;-5.13;90.08
47750;BME280;49810;48.160;10.812;2022-12-18T03:02:27;96300.44;;;-4.95;90.32
47750;BME280;49810;48.160;10.812;2022-12-18T03:04:59;96299.81;;;-4.88;90.06
47750;BME280;49810;48.160;10.812;2022-12-18T03:07:35;96305.28;;;-4.81;89.97
47750;BME280;49810;48.160;10.812;2022-12-18T03:10:11;96290.31;;;-5.08;89.86
47750;BME280;49810;48.160;10.812;2022-12-18T03:12:44;96297.97;;;-4.97;90.18
47750;BME280;49810;48.160;10.812;2022-12-18T03:15:17;96297.09;;;-5.07;90.59
47750;BME280;49810;48.160;10.812;2022-12-18T03:17:56;96290.63;;;-5.01;90.44
47750;BME280;49810;48.160;10.812;2022-12-18T03:20:29;96299.44;;;-5.04;90.36
47750;BME280;49810;48.160;10.812;2022-12-18T03:23:02;96303.13;;;-4.97;90.36
47750;BME280;49810;48.160;10.812;2022-12-18T03:25:32;96318.31;;;-4.83;90.26
47750;BME280;49810;48.160;10.812;2022-12-18T03:28:03;96312.25;;;-4.93;90.02
47750;BME280;49810;48.160;10.812;2022-12-18T03:30:35;96326.91;;;-4.93;89.90
47750;BME280;49810;48.160;10.812;2022-12-18T03:33:08;96318.34;;;-4.94;90.28
47750;BME280;49810;48.160;10.812;2022-12-18T03:35:43;96323.84;;;-4.87;89.94
47750;BME280;49810;48.160;10.812;2022-12-18T03:38:13;96313.53;;;-4.87;89.84
47750;BME280;49810;48.160;10.812;2022-12-18T03:40:53;96326.63;;;-4.79;90.11
47750;BME280;49810;48.160;10.812;2022-12-18T03:43:35;96327.25;;;-4.87;89.90
47750;BME280;49810;48.160;10.812;2022-12-18T03:46:14;96309.75;;;-4.83;89.71
47750;BME280;49810;48.160;10.812;2022-12-18T03:48:46;96317.50;;;-4.83;89.91
47750;BME280;49810;48.160;10.812;2022-12-18T03:51:23;96311.69;;;-4.76;89.73
47750;BME280;49810;48.160;10.812;2022-12-18T03:53:55;96326.50;;;-4.78;89.67
47750;BME280;49810;48.160;10.812;2022-12-18T03:56:33;96324.78;;;-4.68;89.74
47750;BME280;49810;48.160;10.812;2022-12-18T03:59:06;96329.44;;;-4.82;89.79
47750;BME280;49810;48.160;10.812;2022-12-18T04:01:40;96333.53;;;-4.80;89.90
47750;BME280;49810;48.160;10.812;2022-12-18T04:04:13;96327.56;;;-4.80;89.72
47750;BME280;49810;48.160;10.812;2022-12-18T04:06:45;96324.50;;;-4.85;89.74
47750;BME280;49810;48.160;10.812;2022-12-18T04:09:18;96317.25;;;-4.80;89.93
47750;BME280;49810;48.160;10.812;2022-12-18T04:11:47;96323.72;;;-4.86;89.96
47750;BME280;49810;48.160;10.812;2022-12-18T04:14:17;96318.50;;;-4.75;89.76
47750;BME280;49810;48.160;10.812;2022-12-18T04:16:50;96323.97;;;-4.68;89.72
47750;BME280;49810;48.160;10.812;2022-12-18T04:19:22;96332.03;;;-4.62;89.56
47750;BME280;49810;48.160;10.812;2022-12-18T04:21:52;96337.16;;;-4.82;89.49
47750;BME280;49810;48.160;10.812;2022-12-18T04:24:20;96335.16;;;-4.79;89.48
47750;BME280;49810;48.160;10.812;2022-12-18T04:27:04;96334.38;;;-4.90;89.51
47750;BME280;49810;48.160;10.812;2022-12-18T04:29:40;96322.63;;;-5.04;89.97
47750;BME280;49810;48.160;10.812;2022-12-18T04:32:09;96325.09;;;-5.02;89.66
47750;BME280;49810;48.160;10.812;2022-12-18T04:34:39;96326.84;;;-5.03;89.71
47750;BME280;49810;48.160;10.812;2022-12-18T04:37:07;96339.28;;;-5.08;89.87
47750;BME280;49810;48.160;10.812;2022-12-18T04:39:35;96343.13;;;-5.02;90.36
47750;BME280;49810;48.160;10.812;2022-12-18T04:42:09;96335.53;;;-5.04;89.97
47750;BME280;49810;48.160;10.812;2022-12-18T04:44:37;96330.13;;;-5.01;89.97
47750;BME280;49810;48.160;10.812;2022-12-18T04:47:06;96332.31;;;-4.96;89.90
47750;BME280;49810;48.160;10.812;2022-12-18T04:49:35;96334.00;;;-5.06;89.62
47750;BME280;49810;48.160;10.812;2022-12-18T04:52:03;96329.53;;;-5.04;89.88
47750;BME280;49810;48.160;10.812;2022-12-18T04:54:31;96338.38;;;-5.18;89.84
47750;BME280;49810;48.160;10.812;2022-12-18T04:56:59;96347.88;;;-5.18;90.39
47750;BME280;49810;48.160;10.812;2022-12-18T04:59:27;96358.66;;;-5.24;89.95
47750;BME280;49810;48.160;10.812;2022-12-18T05:01:55;96347.53;;;-5.25;90.36
47750;BME280;49810;48.160;10.812;2022-12-18T05:04:27;96351.84;;;-5.14;90.19
47750;BME280;49810;48.160;10.812;2022-12-18T05:06:55;96367.69;;;-5.19;90.26
47750;BME280;49810;48.160;10.812;2022-12-18T05:09:24;96379.06;;;-5.21;90.30
47750;BME280;49810;48.160;10.812;2022-12-18T05:11:52;96380.41;;;-5.17;90.56
47750;BME280;49810;48.160;10.812;2022-12-18T05:14:20;96372.50;;;-5.25;90.08
47750;BME280;49810;48.160;10.812;2022-12-18T05:16:48;96372.97;;;-5.31;90.29
47750;BME280;49810;48.160;10.812;2022-12-18T05:19:17;96378.91;;;-5.20;90.32
47750;BME280;49810;48.160;10.812;2022-12-18T05:21:46;96383.13;;;-5.19;90.18
47750;BME280;49810;48.160;10.812;2022-12-18T05:24:15;96388.88;;;-5.26;90.54
47750;BME280;49810;48.160;10.812;2022-12-18T05:26:43;96380.47;;;-5.28;90.17
47750;BME280;49810;48.160;10.812;2022-12-18T05:29:11;96382.09;;;-5.27;90.11
47750;BME280;49810;48.160;10.812;2022-12-18T05:31:40;96384.09;;;-5.31;90.35
47750;BME280;49810;48.160;10.812;2022-12-18T05:34:09;96395.31;;;-5.21;90.54
47750;BME280;49810;48.160;10.812;2022-12-18T05:36:38;96396.59;;;-5.26;90.16
47750;BME280;49810;48.160;10.812;2022-12-18T05:39:08;96386.69;;;-5.31;90.28
47750;BME280;49810;48.160;10.812;2022-12-18T05:41:36;96389.66;;;-5.15;90.61
47750;BME280;49810;48.160;10.812;2022-12-18T05:44:04;96378.00;;;-5.19;90.02
47750;BME280;49810;48.160;10.812;2022-12-18T05:46:32;96377.66;;;-5.25;89.99
47750;BME280;49810;48.160;10.812;2022-12-18T05:49:01;96369.59;;;-5.00;89.74
47750;BME280;49810;48.160;10.812;2022-12-18T05:51:29;96371.47;;;-5.02;89.76
47750;BME280;49810;48.160;10.812;2022-12-18T05:53:58;96367.41;;;-5.16;89.10
47750;BME280;49810;48.160;10.812;2022-12-18T05:56:27;96373.06;;;-5.22;89.67
47750;BME280;49810;48.160;10.812;2022-12-18T05:58:55;96377.16;;;-5.19;89.15
47750;BME280;49810;48.160;10.812;2022-12-18T06:01:25;96387.06;;;-5.04;89.29
47750;BME280;49810;48.160;10.812;2022-12-18T06:03:54;96391.72;;;-5.29;89.66
47750;BME280;49810;48.160;10.812;2022-12-18T06:06:24;96394.03;;;-5.26;89.74
47750;BME280;49810;48.160;10.812;2022-12-18T06:08:53;96398.22;;;-5.14;89.62
47750;BME280;49810;48.160;10.812;2022-12-18T06:11:22;96393.41;;;-5.08;89.53
47750;BME280;49810;48.160;10.812;2022-12-18T06:13:54;96400.31;;;-5.08;89.17
47750;BME280;49810;48.160;10.812;2022-12-18T06:16:25;96403.38;;;-5.14;88.79
47750;BME280;49810;48.160;10.812;2022-12-18T06:18:55;96403.47;;;-5.05;88.88
47750;BME280;49810;48.160;10.812;2022-12-18T06:21:23;96402.56;;;-5.15;88.91
47750;BME280;49810;48.160;10.812;2022-12-18T06:23:51;96403.25;;;-5.13;88.76
47750;BME280;49810;48.160;10.812;2022-12-18T06:26:20;96407.13;;;-5.18;88.95
47750;BME280;49810;48.160;10.812;2022-12-18T06:28:55;96400.50;;;-5.32;88.98
47750;BME280;49810;48.160;10.812;2022-12-18T06:31:24;96405.72;;;-5.22;89.20
47750;BME280;49810;48.160;10.812;2022-12-18T06:33:53;96410.03;;;-5.12;89.04
47750;BME280;49810;48.160;10.812;2022-12-18T06:36:21;96412.16;;;-5.17;89.14
47750;BME280;49810;48.160;10.812;2022-12-18T06:38:49;96412.78;;;-5.24;88.96
47750;BME280;49810;48.160;10.812;2022-12-18T06:41:19;96421.56;;;-5.27;89.16
47750;BME280;49810;48.160;10.812;2022-12-18T06:43:48;96424.59;;;-5.33;89.26
47750;BME280;49810;48.160;10.812;2022-12-18T06:46:17;96431.75;;;-5.36;89.11
47750;BME280;49810;48.160;10.812;2022-12-18T06:48:49;96434.91;;;-5.33;89.17
47750;BME280;49810;48.160;10.812;2022-12-18T06:51:19;96439.88;;;-5.41;89.22
47750;BME280;49810;48.160;10.812;2022-12-18T06:53:47;96432.72;;;-5.37;89.76
47750;BME280;49810;48.160;10.812;2022-12-18T06:56:15;96423.66;;;-5.21;89.22
47750;BME280;49810;48.160;10.812;2022-12-18T06:58:43;96434.59;;;-5.39;88.94
47750;BME280;49810;48.160;10.812;2022-12-18T07:01:15;96429.75;;;-5.33;89.40
47750;BME280;49810;48.160;10.812;2022-12-18T07:03:45;96437.03;;;-5.38;89.05
47750;BME280;49810;48.160;10.812;2022-12-18T07:06:15;96445.81;;;-5.40;89.40
47750;BME280;49810;48.160;10.812;2022-12-18T07:08:44;96448.16;;;-5.37;89.41
47750;BME280;49810;48.160;10.812;2022-12-18T07:11:13;96433.19;;;-5.43;89.30
47750;BME280;49810;48.160;10.812;2022-12-18T07:13:41;96432.38;;;-5.44;88.90
47750;BME280;49810;48.160;10.812;2022-12-18T07:16:11;96433.16;;;-5.21;88.85
47750;BME280;49810;48.160;10.812;2022-12-18T07:18:51;96439.38;;;-5.35;89.05
47750;BME280;49810;48.160;10.812;2022-12-18T07:21:19;96440.22;;;-5.34;89.07
47750;BME280;49810;48.160;10.812;2022-12-18T07:23:47;96443.72;;;-5.46;89.04
47750;BME280;49810;48.160;10.812;2022-12-18T07:26:18;96436.13;;;-5.37;89.35
47750;BME280;49810;48.160;10.812;2022-12-18T07:28:46;96443.84;;;-5.48;88.85
47750;BME280;49810;48.160;10.812;2022-12-18T07:31:16;96453.09;;;-5.34;89.09
47750;BME280;49810;48.160;10.812;2022-12-18T07:33:48;96454.50;;;-5.30;89.04
47750;BME280;49810;48.160;10.812;2022-12-18T07:36:18;96460.56;;;-5.31;88.51
47750;BME280;49810;48.160;10.812;2022-12-18T07:38:47;96455.28;;;-5.19;88.71
47750;BME280;49810;48.160;10.812;2022-12-18T07:41:15;96459.38;;;-5.16;88.25
47750;BME280;49810;48.160;10.812;2022-12-18T07:43:46;96463.34;;;-5.01;88.42
47750;BME280;49810;48.160;10.812;2022-12-18T07:46:15;96467.00;;;-5.26;88.04
47750;BME280;49810;48.160;10.812;2022-12-18T07:48:44;96477.69;;;-5.30;88.70
47750;BME280;49810;48.160;10.812;2022-12-18T07:51:17;96482.00;;;-5.31;88.93
47750;BME280;49810;48.160;10.812;2022-12-18T07:53:46;96485.88;;;-5.25;88.25
47750;BME280;49810;48.160;10.812;2022-12-18T07:56:18;96480.22;;;-5.19;88.52
47750;BME280;49810;48.160;10.812;2022-12-18T07:58:57;96484.56;;;-5.09;88.23
47750;BME280;49810;48.160;10.812;2022-12-18T08:01:25;96490.09;;;-5.24;87.90
47750;BME280;49810;48.160;10.812;2022-12-18T08:03:54;96486.56;;;-5.23;88.06
47750;BME280;49810;48.160;10.812;2022-12-18T08:06:23;96483.84;;;-5.33;100.00
47750;BME280;49810;48.160;10.812;2022-12-18T08:08:52;60933.22;;;-141.31;100.00
47750;BME280;49810;48.160;10.812;2022-12-18T08:11:22;60933.22;;;-141.31;100.00
47750;BME280;49810;48.160;10.812;2022-12-18T08:13:50;60933.22;;;-141.31;100.00
47750;BME280;49810;48.160;10.812;2022-12-18T08:16:19;60933.22;;;-141.31;100.00
47750;BME280;49810;48.160;10.812;2022-12-18T08:18:48;60933.22;;;-141.31;100.00
47750;BME280;49810;48.160;10.812;2022-12-18T08:21:19;60933.22;;;-141.31;100.00
47750;BME280;49810;48.160;10.812;2022-12-18T08:23:52;60933.22;;;-141.31;100.00
47750;BME280;49810;48.160;10.812;2022-12-18T08:26:21;60933.22;;;-141.31;100.00
47750;BME280;49810;48.160;10.812;2022-12-18T08:28:50;60933.22;;;-141.31;100.00
47750;BME280;49810;48.160;10.812;2022-12-18T08:31:19;60933.22;;;-141.31;100.00
47750;BME280;49810;48.160;10.812;2022-12-18T08:33:49;60933.22;;;-141.31;100.00
47750;BME280;49810;48.160;10.812;2022-12-18T08:36:18;60933.22;;;-141.31;100.00
47750;BME280;49810;48.160;10.812;2022-12-18T08:38:46;60933.22;;;-141.31;100.00
47750;BME280;49810;48.160;10.812;2022-12-18T08:41:17;60933.22;;;-141.31;100.00
47750;BME280;49810;48.160;10.812;2022-12-18T08:43:45;60933.22;;;-141.31;100.00
47750;BME280;49810;48.160;10.812;2022-12-18T08:46:35;60933.22;;;-141.31;100.00
47750;BME280;49810;48.160;10.812;2022-12-18T08:49:04;60933.22;;;-141.31;100.00
47750;BME280;49810;48.160;10.812;2022-12-18T08:51:32;60933.22;;;-141.31;100.00
47750;BME280;49810;48.160;10.812;2022-12-18T08:54:01;60933.22;;;-141.31;100.00
47750;BME280;49810;48.160;10.812;2022-12-18T08:56:33;60933.22;;;-141.31;100.00
47750;BME280;49810;48.160;10.812;2022-12-18T08:59:01;60933.22;;;-141.31;100.00
47750;BME280;49810;48.160;10.812;2022-12-18T09:01:31;60933.22;;;-141.31;100.00
47750;BME280;49810;48.160;10.812;2022-12-18T09:04:00;60933.22;;;-141.31;100.00
47750;BME280;49810;48.160;10.812;2022-12-18T09:06:28;60933.22;;;-141.31;100.00
47750;BME280;49810;48.160;10.812;2022-12-18T09:08:57;60933.22;;;-141.31;100.00
47750;BME280;49810;48.160;10.812;2022-12-18T09:11:26;60933.22;;;-141.31;100.00
47750;BME280;49810;48.160;10.812;2022-12-18T09:13:57;60933.22;;;-141.31;100.00
47750;BME280;49810;48.160;10.812;2022-12-18T09:16:28;60933.22;;;-141.31;100.00
47750;BME280;49810;48.160;10.812;2022-12-18T09:18:59;60933.22;;;-141.31;100.00
47750;BME280;49810;48.160;10.812;2022-12-18T09:21:29;60933.22;;;-141.31;100.00
47750;BME280;49810;48.160;10.812;2022-12-18T09:24:02;60933.22;;;-141.31;100.00
47750;BME280;49810;48.160;10.812;2022-12-18T09:26:35;60933.22;;;-141.31;100.00
47750;BME280;49810;48.160;10.812;2022-12-18T09:29:05;60933.22;;;-141.31;100.00
47750;BME280;49810;48.160;10.812;2022-12-18T09:31:36;60933.22;;;-141.31;100.00
47750;BME280;49810;48.160;10.812;2022-12-18T09:34:04;60933.22;;;-141.31;100.00
47750;BME280;49810;48.160;10.812;2022-12-18T09:36:34;60933.22;;;-141.31;100.00
47750;BME280;49810;48.160;10.812;2022-12-18T09:39:03;60933.22;;;-141.31;100.00
47750;BME280;49810;48.160;10.812;2022-12-18T09:41:46;60933.22;;;-141.31;100.00
47750;BME280;49810;48.160;10.812;2022-12-18T09:44:21;60933.22;;;-141.31;100.00
47750;BME280;49810;48.160;10.812;2022-12-18T09:46:54;60933.22;;;-141.31;100.00
47750;BME280;49810;48.160;10.812;2022-12-18T09:49:28;60933.22;;;-141.31;100.00
47750;BME280;49810;48.160;10.812;2022-12-18T09:52:02;60933.22;;;-141.31;100.00
47750;BME280;49810;48.160;10.812;2022-12-18T09:54:33;60933.22;;;-141.31;100.00
47750;BME280;49810;48.160;10.812;2022-12-18T09:57:04;60933.22;;;-141.31;100.00
47750;BME280;49810;48.160;10.812;2022-12-18T09:59:36;60933.22;;;-141.31;100.00
47750;BME280;49810;48.160;10.812;2022-12-18T10:02:17;60933.22;;;-141.31;100.00
47750;BME280;49810;48.160;10.812;2022-12-18T10:04:56;60933.22;;;-141.31;100.00
47750;BME280;49810;48.160;10.812;2022-12-18T10:07:34;60933.22;;;-141.31;100.00
47750;BME280;49810;48.160;10.812;2022-12-18T10:10:14;60933.22;;;-141.31;100.00
47750;BME280;49810;48.160;10.812;2022-12-18T10:12:51;60933.22;;;-141.31;100.00
47750;BME280;49810;48.160;10.812;2022-12-18T10:15:36;60933.22;;;-141.31;100.00
47750;BME280;49810;48.160;10.812;2022-12-18T10:18:20;60933.22;;;-141.31;100.00
47750;BME280;49810;48.160;10.812;2022-12-18T10:20:54;60933.22;;;-141.31;100.00
47750;BME280;49810;48.160;10.812;2022-12-18T10:23:29;60933.22;;;-141.31;100.00
47750;BME280;49810;48.160;10.812;2022-12-18T10:26:03;60933.22;;;-141.31;100.00
47750;BME280;49810;48.160;10.812;2022-12-18T10:28:35;60933.22;;;-141.31;100.00
47750;BME280;49810;48.160;10.812;2022-12-18T10:31:07;60933.22;;;-141.31;100.00
47750;BME280;49810;48.160;10.812;2022-12-18T10:33:40;60933.22;;;-141.31;100.00
47750;BME280;49810;48.160;10.812;2022-12-18T10:36:08;60933.22;;;-141.31;100.00
47750;BME280;49810;48.160;10.812;2022-12-18T10:38:37;60933.22;;;-141.31;100.00
47750;BME280;49810;48.160;10.812;2022-12-18T10:41:22;60933.22;;;-141.31;100.00
47750;BME280;49810;48.160;10.812;2022-12-18T10:44:11;60933.22;;;-141.31;100.00
47750;BME280;49810;48.160;10.812;2022-12-18T10:46:41;60933.22;;;-141.31;100.00
47750;BME280;49810;48.160;10.812;2022-12-18T10:49:19;60933.22;;;-141.31;100.00
47750;BME280;49810;48.160;10.812;2022-12-18T10:51:49;60933.22;;;-141.31;100.00
47750;BME280;49810;48.160;10.812;2022-12-18T10:54:21;60933.22;;;-141.31;100.00
47750;BME280;49810;48.160;10.812;2022-12-18T10:56:50;60933.22;;;-141.31;100.00
47750;BME280;49810;48.160;10.812;2022-12-18T10:59:19;60933.22;;;-141.31;100.00
47750;BME280;49810;48.160;10.812;2022-12-18T11:01:50;60933.22;;;-141.31;100.00
47750;BME280;49810;48.160;10.812;2022-12-18T11:04:24;60933.22;;;-141.31;100.00
47750;BME280;49810;48.160;10.812;2022-12-18T11:06:59;60933.22;;;-141.31;100.00
47750;BME280;49810;48.160;10.812;2022-12-18T11:09:27;60933.22;;;-141.31;100.00
47750;BME280;49810;48.160;10.812;2022-12-18T11:11:57;60933.22;;;-141.31;100.00
47750;BME280;49810;48.160;10.812;2022-12-18T11:14:28;60933.22;;;-141.31;100.00
47750;BME280;49810;48.160;10.812;2022-12-18T11:16:59;60933.22;;;-141.31;100.00
47750;BME280;49810;48.160;10.812;2022-12-18T11:19:52;60933.22;;;-141.31;100.00
47750;BME280;49810;48.160;10.812;2022-12-18T11:22:23;60933.22;;;-141.31;100.00
47750;BME280;49810;48.160;10.812;2022-12-18T11:24:56;60933.22;;;-141.31;100.00
47750;BME280;49810;48.160;10.812;2022-12-18T11:27:51;60933.22;;;-141.31;100.00
47750;BME280;49810;48.160;10.812;2022-12-18T11:30:22;60933.22;;;-141.31;100.00
47750;BME280;49810;48.160;10.812;2022-12-18T11:32:55;60933.22;;;-141.31;100.00
47750;BME280;49810;48.160;10.812;2022-12-18T11:35:34;60933.22;;;-141.31;100.00
47750;BME280;49810;48.160;10.812;2022-12-18T11:38:06;60933.22;;;-141.31;100.00
47750;BME280;49810;48.160;10.812;2022-12-18T11:40:42;60933.22;;;-141.31;100.00
47750;BME280;49810;48.160;10.812;2022-12-18T11:43:15;60933.22;;;-141.31;100.00
47750;BME280;49810;48.160;10.812;2022-12-18T11:45:49;60933.22;;;-141.31;100.00
47750;BME280;49810;48.160;10.812;2022-12-18T11:48:23;60933.22;;;-141.31;100.00
47750;BME280;49810;48.160;10.812;2022-12-18T11:50:55;60933.22;;;-141.31;100.00
47750;BME280;49810;48.160;10.812;2022-12-18T11:53:25;60933.22;;;-141.31;100.00
47750;BME280;49810;48.160;10.812;2022-12-18T11:56:03;60933.22;;;-141.31;100.00
47750;BME280;49810;48.160;10.812;2022-12-18T11:58:42;60933.22;;;-141.31;100.00
47750;BME280;49810;48.160;10.812;2022-12-18T12:01:18;60933.22;;;-141.31;100.00
47750;BME280;49810;48.160;10.812;2022-12-18T12:04:20;60933.22;;;-141.31;100.00
47750;BME280;49810;48.160;10.812;2022-12-18T12:07:00;60933.22;;;-141.31;100.00
47750;BME280;49810;48.160;10.812;2022-12-18T12:09:35;60933.22;;;-141.31;100.00
47750;BME280;49810;48.160;10.812;2022-12-18T12:12:19;60933.22;;;-141.31;100.00
47750;BME280;49810;48.160;10.812;2022-12-18T12:14:59;60933.22;;;-141.31;100.00
47750;BME280;49810;48.160;10.812;2022-12-18T12:17:34;60933.22;;;-141.31;100.00
47750;BME280;49810;48.160;10.812;2022-12-18T12:20:13;60933.22;;;-141.31;100.00
47750;BME280;49810;48.160;10.812;2022-12-18T12:22:51;60933.22;;;-141.31;100.00
47750;BME280;49810;48.160;10.812;2022-12-18T12:25:32;60933.22;;;-141.31;100.00
47750;BME280;49810;48.160;10.812;2022-12-18T12:28:11;60933.22;;;-141.31;100.00
47750;BME280;49810;48.160;10.812;2022-12-18T12:30:52;60933.22;;;-141.31;100.00
47750;BME280;49810;48.160;10.812;2022-12-18T12:33:32;60933.22;;;-141.31;100.00
47750;BME280;49810;48.160;10.812;2022-12-18T12:36:15;60933.22;;;-141.31;100.00
47750;BME280;49810;48.160;10.812;2022-12-18T12:38:50;60933.22;;;-141.31;100.00
47750;BME280;49810;48.160;10.812;2022-12-18T12:41:22;60933.22;;;-141.31;100.00
47750;BME280;49810;48.160;10.812;2022-12-18T12:44:16;60933.22;;;-141.31;100.00
47750;BME280;49810;48.160;10.812;2022-12-18T12:46:49;60933.22;;;-141.31;100.00
47750;BME280;49810;48.160;10.812;2022-12-18T12:49:21;60933.22;;;-141.31;100.00
47750;BME280;49810;48.160;10.812;2022-12-18T12:51:59;60933.22;;;-141.31;100.00
47750;BME280;49810;48.160;10.812;2022-12-18T12:54:32;60933.22;;;-141.31;100.00
47750;BME280;49810;48.160;10.812;2022-12-18T12:57:08;60933.22;;;-141.31;100.00
47750;BME280;49810;48.160;10.812;2022-12-18T12:59:47;60933.22;;;-141.31;100.00
47750;BME280;49810;48.160;10.812;2022-12-18T13:02:23;60933.22;;;-141.31;100.00
47750;BME280;49810;48.160;10.812;2022-12-18T13:04:57;60933.22;;;-141.31;100.00